Impacts TAF Board INFO
FOR SITUATIONAL AWARENESS. NOT TO BE USED FOR FLIGHT PLANNING PURPOSES.
IDs:

KMIA - Miami Intl, FL, US

Issued at 0859 UTC 19 Nov 2017
Updated at 1015 UTC 19 Nov 2017
Potential Impact None Slight Moderate High
Time<<20/11Z 20/12Z 20/13Z 20/14Z 20/15Z 20/16Z 20/17Z 20/18Z 20/19Z 20/20Z 20/21Z 20/22Z 20/23Z
Type PRVL
VIS >6
CIG 40
Cover BKN
FltCat VFR
WX VCSH
WDir 10
WSpd 10
WGst --

Raw TAF
KMIA 190859Z 1909/2012 32003KT P6SM SKC
  FM191500 28008KT P6SM FEW040
  FM200300 32005KT P6SM SCT020 SCT040
  FM200900 01010KT P6SM VCSH SCT020 BKN040


METAR Board
Radar Display
Forecast Discussion

FOR SITUATIONAL AWARENESS. NOT TO BE USED FOR FLIGHT PLANNING PURPOSES.